sensor_id;sensor_type;location;lat;lon;timestamp;pressure;altitude;pressure_sealevel;temperature;humidity
14800;BME280;7491;57.750;11.970;2023-03-20T00:06:02;76098.44;;;-142.11;100.00
14800;BME280;7491;57.750;11.970;2023-03-20T00:08:59;76102.50;;;-142.11;100.00
14800;BME280;7491;57.750;11.970;2023-03-20T00:13:25;76116.78;;;-142.11;100.00
14800;BME280;7491;57.750;11.970;2023-03-20T00:18:58;76108.63;;;-142.11;100.00
14800;BME280;7491;57.750;11.970;2023-03-20T00:22:11;76100.47;;;-142.11;100.00
14800;BME280;7491;57.750;11.970;2023-03-20T00:24:56;76096.41;;;-142.11;100.00
14800;BME280;7491;57.750;11.970;2023-03-20T00:27:24;76090.28;;;-142.11;100.00
14800;BME280;7491;57.750;11.970;2023-03-20T00:30:07;76096.41;;;-142.11;100.00
14800;BME280;7491;57.750;11.970;2023-03-20T00:32:59;76086.19;;;-142.11;100.00
14800;BME280;7491;57.750;11.970;2023-03-20T00:39:17;76094.34;;;-142.11;100.00
14800;BME280;7491;57.750;11.970;2023-03-20T00:44:32;76110.66;;;-142.11;100.00
14800;BME280;7491;57.750;11.970;2023-03-20T00:45:47;76108.63;;;-142.11;100.00
14800;BME280;7491;57.750;11.970;2023-03-20T00:48:55;76110.66;;;-142.11;100.00
14800;BME280;7491;57.750;11.970;2023-03-20T00:51:41;76102.50;;;-142.11;100.00
14800;BME280;7491;57.750;11.970;2023-03-20T00:54:12;76106.59;;;-142.11;100.00
14800;BME280;7491;57.750;11.970;2023-03-20T00:56:56;76106.59;;;-142.11;100.00
14800;BME280;7491;57.750;11.970;2023-03-20T00:59:33;76106.59;;;-142.11;100.00
14800;BME280;7491;57.750;11.970;2023-03-20T01:02:01;76090.28;;;-142.11;100.00
14800;BME280;7491;57.750;11.970;2023-03-20T01:04:34;76090.28;;;-142.11;100.00
14800;BME280;7491;57.750;11.970;2023-03-20T01:07:14;76086.19;;;-142.11;100.00
14800;BME280;7491;57.750;11.970;2023-03-20T01:12:48;76102.50;;;-142.11;100.00
14800;BME280;7491;57.750;11.970;2023-03-20T01:18:57;76078.06;;;-142.11;100.00
14800;BME280;7491;57.750;11.970;2023-03-20T01:21:33;76096.41;;;-142.11;100.00
14800;BME280;7491;57.750;11.970;2023-03-20T01:24:01;76084.16;;;-142.11;100.00
14800;BME280;7491;57.750;11.970;2023-03-20T01:26:34;76094.34;;;-142.11;100.00
14800;BME280;7491;57.750;11.970;2023-03-20T01:29:04;76094.34;;;-142.11;100.00
14800;BME280;7491;57.750;11.970;2023-03-20T01:31:38;76094.34;;;-142.11;100.00
14800;BME280;7491;57.750;11.970;2023-03-20T01:34:08;76102.50;;;-142.11;100.00
14800;BME280;7491;57.750;11.970;2023-03-20T01:36:36;76102.50;;;-142.11;100.00
14800;BME280;7491;57.750;11.970;2023-03-20T01:39:09;76094.34;;;-142.11;100.00
14800;BME280;7491;57.750;11.970;2023-03-20T01:41:36;76122.91;;;-142.11;100.00
14800;BME280;7491;57.750;11.970;2023-03-20T01:44:18;76094.34;;;-142.11;100.00
14800;BME280;7491;57.750;11.970;2023-03-20T01:46:46;76094.34;;;-142.11;100.00
14800;BME280;7491;57.750;11.970;2023-03-20T01:52:19;76088.25;;;-142.11;100.00
14800;BME280;7491;57.750;11.970;2023-03-20T01:55:05;76069.91;;;-142.11;100.00
14800;BME280;7491;57.750;11.970;2023-03-20T01:57:45;76065.81;;;-142.11;100.00
14800;BME280;7491;57.750;11.970;2023-03-20T02:00:41;76069.91;;;-142.11;100.00
14800;BME280;7491;57.750;11.970;2023-03-20T02:07:35;76078.06;;;-142.11;100.00
14800;BME280;7491;57.750;11.970;2023-03-20T02:10:15;76071.94;;;-142.11;100.00
14800;BME280;7491;57.750;11.970;2023-03-20T02:13:00;76078.06;;;-142.11;100.00
14800;BME280;7491;57.750;11.970;2023-03-20T02:15:31;76063.78;;;-142.11;100.00
14800;BME280;7491;57.750;11.970;2023-03-20T02:18:03;76053.59;;;-142.11;100.00
14800;BME280;7491;57.750;11.970;2023-03-20T02:20:37;76071.94;;;-142.11;100.00
14800;BME280;7491;57.750;11.970;2023-03-20T02:26:53;76071.94;;;-142.11;100.00
14800;BME280;7491;57.750;11.970;2023-03-20T02:29:55;76069.91;;;-142.11;100.00
14800;BME280;7491;57.750;11.970;2023-03-20T02:41:50;76049.50;;;-142.11;100.00
14800;BME280;7491;57.750;11.970;2023-03-20T02:44:45;76049.50;;;-142.11;100.00
14800;BME280;7491;57.750;11.970;2023-03-20T02:47:30;76053.59;;;-142.11;100.00
14800;BME280;7491;57.750;11.970;2023-03-20T02:50:22;76049.50;;;-142.11;100.00
14800;BME280;7491;57.750;11.970;2023-03-20T02:52:59;76051.56;;;-142.11;100.00
14800;BME280;7491;57.750;11.970;2023-03-20T02:55:39;76057.66;;;-142.11;100.00
14800;BME280;7491;57.750;11.970;2023-03-20T02:58:25;76033.22;;;-142.11;100.00
14800;BME280;7491;57.750;11.970;2023-03-20T03:00:57;76033.22;;;-142.11;100.00
14800;BME280;7491;57.750;11.970;2023-03-20T03:03:46;76047.47;;;-142.11;100.00
14800;BME280;7491;57.750;11.970;2023-03-20T03:06:21;76037.28;;;-142.11;100.00
14800;BME280;7491;57.750;11.970;2023-03-20T03:09:19;76037.28;;;-142.11;100.00
14800;BME280;7491;57.750;11.970;2023-03-20T03:11:55;76027.09;;;-142.11;100.00
14800;BME280;7491;57.750;11.970;2023-03-20T03:14:36;76010.78;;;-142.11;100.00
14800;BME280;7491;57.750;11.970;2023-03-20T03:17:06;76006.72;;;-142.11;100.00
14800;BME280;7491;57.750;11.970;2023-03-20T03:19:38;76008.75;;;-142.11;100.00
14800;BME280;7491;57.750;11.970;2023-03-20T03:22:26;76006.72;;;-142.11;100.00
14800;BME280;7491;57.750;11.970;2023-03-20T03:24:58;76000.59;;;-142.11;100.00
14800;BME280;7491;57.750;11.970;2023-03-20T03:27:35;76000.59;;;-142.11;100.00
14800;BME280;7491;57.750;11.970;2023-03-20T03:30:27;75994.47;;;-142.11;100.00
14800;BME280;7491;57.750;11.970;2023-03-20T03:47:36;75972.06;;;-142.11;100.00
14800;BME280;7491;57.750;11.970;2023-03-20T03:50:35;75976.13;;;-142.11;100.00
14800;BME280;7491;57.750;11.970;2023-03-20T03:53:25;75959.81;;;-142.11;100.00
14800;BME280;7491;57.750;11.970;2023-03-20T03:55:56;75974.09;;;-142.11;100.00
14800;BME280;7491;57.750;11.970;2023-03-20T03:58:29;75965.94;;;-142.11;100.00
14800;BME280;7491;57.750;11.970;2023-03-20T04:01:13;75978.16;;;-142.11;100.00
14800;BME280;7491;57.750;11.970;2023-03-20T04:03:46;75965.94;;;-142.11;100.00
14800;BME280;7491;57.750;11.970;2023-03-20T04:09:21;75976.13;;;-142.11;100.00
14800;BME280;7491;57.750;11.970;2023-03-20T04:11:58;75972.06;;;-142.11;100.00
14800;BME280;7491;57.750;11.970;2023-03-20T04:14:38;75965.94;;;-142.11;100.00
14800;BME280;7491;57.750;11.970;2023-03-20T04:17:30;75957.78;;;-142.11;100.00
14800;BME280;7491;57.750;11.970;2023-03-20T04:20:28;75961.88;;;-142.11;100.00
14800;BME280;7491;57.750;11.970;2023-03-20T04:22:58;75980.22;;;-142.11;100.00
14800;BME280;7491;57.750;11.970;2023-03-20T04:25:28;75967.97;;;-142.11;100.00
14800;BME280;7491;57.750;11.970;2023-03-20T04:27:58;75972.06;;;-142.11;100.00
14800;BME280;7491;57.750;11.970;2023-03-20T04:30:24;75976.13;;;-142.11;100.00
14800;BME280;7491;57.750;11.970;2023-03-20T04:32:56;75967.97;;;-142.11;100.00
14800;BME280;7491;57.750;11.970;2023-03-20T04:35:28;75978.16;;;-142.11;100.00
14800;BME280;7491;57.750;11.970;2023-03-20T04:37:58;75988.34;;;-142.11;100.00
14800;BME280;7491;57.750;11.970;2023-03-20T04:40:25;75986.31;;;-142.11;100.00
14800;BME280;7491;57.750;11.970;2023-03-20T04:42:52;75996.50;;;-142.11;100.00
14800;BME280;7491;57.750;11.970;2023-03-20T04:45:19;75994.47;;;-142.11;100.00
14800;BME280;7491;57.750;11.970;2023-03-20T04:47:46;75990.41;;;-142.11;100.00
14800;BME280;7491;57.750;11.970;2023-03-20T04:50:15;75978.16;;;-142.11;100.00
14800;BME280;7491;57.750;11.970;2023-03-20T04:52:41;75994.47;;;-142.11;100.00
14800;BME280;7491;57.750;11.970;2023-03-20T04:55:08;75994.47;;;-142.11;100.00
14800;BME280;7491;57.750;11.970;2023-03-20T04:57:35;76004.66;;;-142.11;100.00
14800;BME280;7491;57.750;11.970;2023-03-20T05:00:03;75990.41;;;-142.11;100.00
14800;BME280;7491;57.750;11.970;2023-03-20T05:02:29;76000.59;;;-142.11;100.00
14800;BME280;7491;57.750;11.970;2023-03-20T05:04:56;75998.56;;;-142.11;100.00
14800;BME280;7491;57.750;11.970;2023-03-20T05:07:25;76000.59;;;-142.11;100.00
14800;BME280;7491;57.750;11.970;2023-03-20T05:09:51;76006.72;;;-142.11;100.00
14800;BME280;7491;57.750;11.970;2023-03-20T05:12:18;76023.00;;;-142.11;100.00
14800;BME280;7491;57.750;11.970;2023-03-20T05:14:45;76010.78;;;-142.11;100.00
14800;BME280;7491;57.750;11.970;2023-03-20T05:17:12;76029.13;;;-142.11;100.00
14800;BME280;7491;57.750;11.970;2023-03-20T05:19:39;76008.75;;;-142.11;100.00
14800;BME280;7491;57.750;11.970;2023-03-20T05:22:07;76006.72;;;-142.11;100.00
14800;BME280;7491;57.750;11.970;2023-03-20T05:24:35;76004.66;;;-142.11;100.00
14800;BME280;7491;57.750;11.970;2023-03-20T05:27:02;76004.66;;;-142.11;100.00
14800;BME280;7491;57.750;11.970;2023-03-20T05:29:29;76002.63;;;-142.11;100.00
14800;BME280;7491;57.750;11.970;2023-03-20T05:31:55;76002.63;;;-142.11;100.00
14800;BME280;7491;57.750;11.970;2023-03-20T05:34:22;76002.63;;;-142.11;100.00
14800;BME280;7491;57.750;11.970;2023-03-20T05:36:49;76000.59;;;-142.11;100.00
14800;BME280;7491;57.750;11.970;2023-03-20T05:39:16;76008.75;;;-142.11;100.00
14800;BME280;7491;57.750;11.970;2023-03-20T05:41:44;76000.59;;;-142.11;100.00
14800;BME280;7491;57.750;11.970;2023-03-20T05:44:11;76002.63;;;-142.11;100.00
14800;BME280;7491;57.750;11.970;2023-03-20T05:46:38;75994.47;;;-142.11;100.00
14800;BME280;7491;57.750;11.970;2023-03-20T05:49:04;76023.00;;;-142.11;100.00
14800;BME280;7491;57.750;11.970;2023-03-20T05:51:31;76016.91;;;-142.11;100.00
14800;BME280;7491;57.750;11.970;2023-03-20T05:53:58;76027.09;;;-142.11;100.00
14800;BME280;7491;57.750;11.970;2023-03-20T05:56:24;76014.84;;;-142.11;100.00
14800;BME280;7491;57.750;11.970;2023-03-20T05:58:53;76020.97;;;-142.11;100.00
14800;BME280;7491;57.750;11.970;2023-03-20T06:01:20;76016.91;;;-142.11;100.00
14800;BME280;7491;57.750;11.970;2023-03-20T06:03:46;76018.94;;;-142.11;100.00
14800;BME280;7491;57.750;11.970;2023-03-20T06:06:14;76012.81;;;-142.11;100.00
14800;BME280;7491;57.750;11.970;2023-03-20T06:08:40;76018.94;;;-142.11;100.00
14800;BME280;7491;57.750;11.970;2023-03-20T06:11:08;76041.34;;;-142.11;100.00
14800;BME280;7491;57.750;11.970;2023-03-20T06:13:35;76031.16;;;-142.11;100.00
14800;BME280;7491;57.750;11.970;2023-03-20T06:16:04;76041.34;;;-142.11;100.00
14800;BME280;7491;57.750;11.970;2023-03-20T06:18:31;76037.28;;;-142.11;100.00
14800;BME280;7491;57.750;11.970;2023-03-20T06:20:58;76037.28;;;-142.11;100.00
14800;BME280;7491;57.750;11.970;2023-03-20T06:23:26;76039.31;;;-142.11;100.00
14800;BME280;7491;57.750;11.970;2023-03-20T06:25:53;76047.47;;;-142.11;100.00
14800;BME280;7491;57.750;11.970;2023-03-20T06:28:20;76055.63;;;-142.11;100.00
14800;BME280;7491;57.750;11.970;2023-03-20T06:30:50;76049.50;;;-142.11;100.00
14800;BME280;7491;57.750;11.970;2023-03-20T06:33:18;76063.78;;;-142.11;100.00
14800;BME280;7491;57.750;11.970;2023-03-20T06:35:46;76053.59;;;-142.11;100.00
14800;BME280;7491;57.750;11.970;2023-03-20T06:38:14;76082.13;;;-142.11;100.00
14800;BME280;7491;57.750;11.970;2023-03-20T06:40:41;76069.91;;;-142.11;100.00
14800;BME280;7491;57.750;11.970;2023-03-20T06:43:09;76045.44;;;-142.11;100.00
14800;BME280;7491;57.750;11.970;2023-03-20T06:45:37;76043.41;;;-142.11;100.00
14800;BME280;7491;57.750;11.970;2023-03-20T06:48:05;76053.59;;;-142.11;100.00
14800;BME280;7491;57.750;11.970;2023-03-20T06:50:33;76051.56;;;-142.11;100.00
14800;BME280;7491;57.750;11.970;2023-03-20T06:53:00;76047.47;;;-142.11;100.00
14800;BME280;7491;57.750;11.970;2023-03-20T06:55:26;76053.59;;;-142.11;100.00
14800;BME280;7491;57.750;11.970;2023-03-20T06:57:53;76049.50;;;-142.11;100.00
14800;BME280;7491;57.750;11.970;2023-03-20T07:00:20;76039.31;;;-142.11;100.00
14800;BME280;7491;57.750;11.970;2023-03-20T07:02:47;76053.59;;;-142.11;100.00
14800;BME280;7491;57.750;11.970;2023-03-20T07:05:14;76045.44;;;-142.11;100.00
14800;BME280;7491;57.750;11.970;2023-03-20T07:07:42;76043.41;;;-142.11;100.00
14800;BME280;7491;57.750;11.970;2023-03-20T07:10:10;76045.44;;;-142.11;100.00
14800;BME280;7491;57.750;11.970;2023-03-20T07:12:36;76041.34;;;-142.11;100.00
14800;BME280;7491;57.750;11.970;2023-03-20T07:15:04;76031.16;;;-142.11;100.00
14800;BME280;7491;57.750;11.970;2023-03-20T07:17:31;76033.22;;;-142.11;100.00
14800;BME280;7491;57.750;11.970;2023-03-20T07:19:57;76025.06;;;-142.11;100.00
14800;BME280;7491;57.750;11.970;2023-03-20T07:22:26;76023.00;;;-142.11;100.00
14800;BME280;7491;57.750;11.970;2023-03-20T07:24:55;76018.94;;;-142.11;100.00
14800;BME280;7491;57.750;11.970;2023-03-20T07:27:22;76016.91;;;-142.11;100.00
14800;BME280;7491;57.750;11.970;2023-03-20T07:29:49;76014.84;;;-142.11;100.00
14800;BME280;7491;57.750;11.970;2023-03-20T07:32:16;76018.94;;;-142.11;100.00
14800;BME280;7491;57.750;11.970;2023-03-20T07:34:43;76004.66;;;-142.11;100.00
14800;BME280;7491;57.750;11.970;2023-03-20T07:37:12;76012.81;;;-142.11;100.00
14800;BME280;7491;57.750;11.970;2023-03-20T07:39:38;76014.84;;;-142.11;100.00
14800;BME280;7491;57.750;11.970;2023-03-20T07:42:07;76023.00;;;-142.11;100.00
14800;BME280;7491;57.750;11.970;2023-03-20T07:44:34;76000.59;;;-142.11;100.00
14800;BME280;7491;57.750;11.970;2023-03-20T07:47:01;76000.59;;;-142.11;100.00
14800;BME280;7491;57.750;11.970;2023-03-20T07:49:27;76008.75;;;-142.11;100.00
14800;BME280;7491;57.750;11.970;2023-03-20T07:51:54;76010.78;;;-142.11;100.00
14800;BME280;7491;57.750;11.970;2023-03-20T07:54:21;76006.72;;;-142.11;100.00
14800;BME280;7491;57.750;11.970;2023-03-20T07:56:48;76014.84;;;-142.11;100.00
14800;BME280;7491;57.750;11.970;2023-03-20T07:59:16;76020.97;;;-142.11;100.00
14800;BME280;7491;57.750;11.970;2023-03-20T08:01:43;76029.13;;;-142.11;100.00
14800;BME280;7491;57.750;11.970;2023-03-20T08:04:10;76031.16;;;-142.11;100.00
14800;BME280;7491;57.750;11.970;2023-03-20T08:06:37;76035.25;;;-142.11;100.00
14800;BME280;7491;57.750;11.970;2023-03-20T08:09:04;76033.22;;;-142.11;100.00
14800;BME280;7491;57.750;11.970;2023-03-20T08:11:31;76033.22;;;-142.11;100.00
14800;BME280;7491;57.750;11.970;2023-03-20T08:13:58;76033.22;;;-142.11;100.00
14800;BME280;7491;57.750;11.970;2023-03-20T08:16:26;76055.63;;;-142.11;100.00
14800;BME280;7491;57.750;11.970;2023-03-20T08:18:53;76073.97;;;-142.11;100.00
14800;BME280;7491;57.750;11.970;2023-03-20T08:21:25;76076.00;;;-142.11;100.00
14800;BME280;7491;57.750;11.970;2023-03-20T08:23:52;76100.47;;;-142.11;100.00
14800;BME280;7491;57.750;11.970;2023-03-20T08:26:19;76094.34;;;-142.11;100.00
14800;BME280;7491;57.750;11.970;2023-03-20T08:28:46;76090.28;;;-142.11;100.00
14800;BME280;7491;57.750;11.970;2023-03-20T08:31:13;76088.25;;;-142.11;100.00
14800;BME280;7491;57.750;11.970;2023-03-20T08:33:41;76076.00;;;-142.11;100.00
14800;BME280;7491;57.750;11.970;2023-03-20T08:36:08;76088.25;;;-142.11;100.00
14800;BME280;7491;57.750;11.970;2023-03-20T08:38:35;76071.94;;;-142.11;100.00
14800;BME280;7491;57.750;11.970;2023-03-20T08:41:02;76067.84;;;-142.11;100.00
14800;BME280;7491;57.750;11.970;2023-03-20T08:43:29;76059.69;;;-142.11;100.00
14800;BME280;7491;57.750;11.970;2023-03-20T08:45:55;76055.63;;;-142.11;100.00
14800;BME280;7491;57.750;11.970;2023-03-20T08:48:22;76051.56;;;-142.11;100.00
14800;BME280;7491;57.750;11.970;2023-03-20T08:50:51;76063.78;;;-142.11;100.00
14800;BME280;7491;57.750;11.970;2023-03-20T08:53:17;76071.94;;;-142.11;100.00
14800;BME280;7491;57.750;11.970;2023-03-20T08:55:47;76067.84;;;-142.11;100.00
14800;BME280;7491;57.750;11.970;2023-03-20T08:58:14;76057.66;;;-142.11;100.00
14800;BME280;7491;57.750;11.970;2023-03-20T09:00:41;76065.81;;;-142.11;100.00
14800;BME280;7491;57.750;11.970;2023-03-20T09:03:11;76065.81;;;-142.11;100.00
14800;BME280;7491;57.750;11.970;2023-03-20T09:05:38;76069.91;;;-142.11;100.00
14800;BME280;7491;57.750;11.970;2023-03-20T09:08:07;76061.75;;;-142.11;100.00
14800;BME280;7491;57.750;11.970;2023-03-20T09:10:33;76069.91;;;-142.11;100.00
14800;BME280;7491;57.750;11.970;2023-03-20T09:13:00;76084.16;;;-142.11;100.00
14800;BME280;7491;57.750;11.970;2023-03-20T09:15:27;76078.06;;;-142.11;100.00
14800;BME280;7491;57.750;11.970;2023-03-20T09:17:54;76076.00;;;-142.11;100.00
14800;BME280;7491;57.750;11.970;2023-03-20T09:20:21;76080.09;;;-142.11;100.00
14800;BME280;7491;57.750;11.970;2023-03-20T09:22:48;76076.00;;;-142.11;100.00
14800;BME280;7491;57.750;11.970;2023-03-20T09:25:16;76088.25;;;-142.11;100.00
14800;BME280;7491;57.750;11.970;2023-03-20T09:27:43;76076.00;;;-142.11;100.00
14800;BME280;7491;57.750;11.970;2023-03-20T09:30:12;76071.94;;;-142.11;100.00
14800;BME280;7491;57.750;11.970;2023-03-20T09:32:39;76073.97;;;-142.11;100.00
14800;BME280;7491;57.750;11.970;2023-03-20T09:35:06;76078.06;;;-142.11;100.00
14800;BME280;7491;57.750;11.970;2023-03-20T09:37:32;76090.28;;;-142.11;100.00
14800;BME280;7491;57.750;11.970;2023-03-20T09:40:00;76076.00;;;-142.11;100.00
14800;BME280;7491;57.750;11.970;2023-03-20T09:42:38;76071.94;;;-142.11;100.00
14800;BME280;7491;57.750;11.970;2023-03-20T09:45:11;76082.13;;;-142.11;100.00
14800;BME280;7491;57.750;11.970;2023-03-20T09:47:44;76073.97;;;-142.11;100.00
14800;BME280;7491;57.750;11.970;2023-03-20T09:50:20;76061.75;;;-142.11;100.00
14800;BME280;7491;57.750;11.970;2023-03-20T09:52:56;76067.84;;;-142.11;100.00
14800;BME280;7491;57.750;11.970;2023-03-20T09:55:29;76071.94;;;-142.11;100.00
14800;BME280;7491;57.750;11.970;2023-03-20T09:58:03;76076.00;;;-142.11;100.00
14800;BME280;7491;57.750;11.970;2023-03-20T10:00:33;76065.81;;;-142.11;100.00
14800;BME280;7491;57.750;11.970;2023-03-20T10:03:03;76049.50;;;-142.11;100.00
14800;BME280;7491;57.750;11.970;2023-03-20T10:05:34;76051.56;;;-142.11;100.00
14800;BME280;7491;57.750;11.970;2023-03-20T10:08:05;76061.75;;;-142.11;100.00
14800;BME280;7491;57.750;11.970;2023-03-20T10:10:40;76057.66;;;-142.11;100.00
14800;BME280;7491;57.750;11.970;2023-03-20T10:13:28;76063.78;;;-142.11;100.00
14800;BME280;7491;57.750;11.970;2023-03-20T10:16:06;76049.50;;;-142.11;100.00
14800;BME280;7491;57.750;11.970;2023-03-20T10:18:45;76053.59;;;-142.11;100.00
14800;BME280;7491;57.750;11.970;2023-03-20T10:21:17;76045.44;;;-142.11;100.00
14800;BME280;7491;57.750;11.970;2023-03-20T10:23:54;76049.50;;;-142.11;100.00
14800;BME280;7491;57.750;11.970;2023-03-20T10:26:23;76041.34;;;-142.11;100.00
14800;BME280;7491;57.750;11.970;2023-03-20T10:28:56;76041.34;;;-142.11;100.00
14800;BME280;7491;57.750;11.970;2023-03-20T10:31:41;76043.41;;;-142.11;100.00
14800;BME280;7491;57.750;11.970;2023-03-20T10:34:26;76045.44;;;-142.11;100.00
14800;BME280;7491;57.750;11.970;2023-03-20T10:37:08;76055.63;;;-142.11;100.00
14800;BME280;7491;57.750;11.970;2023-03-20T10:39:51;76041.34;;;-142.11;100.00
14800;BME280;7491;57.750;11.970;2023-03-20T10:42:26;76035.25;;;-142.11;100.00
14800;BME280;7491;57.750;11.970;2023-03-20T10:44:58;76027.09;;;-142.11;100.00
14800;BME280;7491;57.750;11.970;2023-03-20T10:47:29;76014.84;;;-142.11;100.00
14800;BME280;7491;57.750;11.970;2023-03-20T10:50:00;76006.72;;;-142.11;100.00
14800;BME280;7491;57.750;11.970;2023-03-20T10:52:31;76018.94;;;-142.11;100.00
14800;BME280;7491;57.750;11.970;2023-03-20T10:55:03;76027.09;;;-142.11;100.00
14800;BME280;7491;57.750;11.970;2023-03-20T10:57:35;76033.22;;;-142.11;100.00
14800;BME280;7491;57.750;11.970;2023-03-20T11:00:06;76018.94;;;-142.11;100.00
14800;BME280;7491;57.750;11.970;2023-03-20T11:02:37;76023.00;;;-142.11;100.00
14800;BME280;7491;57.750;11.970;2023-03-20T11:05:20;76016.91;;;-142.11;100.00
14800;BME280;7491;57.750;11.970;2023-03-20T11:07:49;76014.84;;;-142.11;100.00
14800;BME280;7491;57.750;11.970;2023-03-20T11:10:17;76016.91;;;-142.11;100.00
14800;BME280;7491;57.750;11.970;2023-03-20T11:12:44;76020.97;;;-142.11;100.00
14800;BME280;7491;57.750;11.970;2023-03-20T11:15:24;76012.81;;;-142.11;100.00
14800;BME280;7491;57.750;11.970;2023-03-20T11:17:55;76006.72;;;-142.11;100.00
14800;BME280;7491;57.750;11.970;2023-03-20T11:20:24;76008.75;;;-142.11;100.00
14800;BME280;7491;57.750;11.970;2023-03-20T11:22:57;76016.91;;;-142.11;100.00
14800;BME280;7491;57.750;11.970;2023-03-20T11:25:29;76012.81;;;-142.11;100.00
14800;BME280;7491;57.750;11.970;2023-03-20T11:28:29;76014.84;;;-142.11;100.00
14800;BME280;7491;57.750;11.970;2023-03-20T11:30:59;76025.06;;;-142.11;100.00
14800;BME280;7491;57.750;11.970;2023-03-20T11:33:28;76020.97;;;-142.11;100.00
14800;BME280;7491;57.750;11.970;2023-03-20T11:35:57;76033.22;;;-142.11;100.00
14800;BME280;7491;57.750;11.970;2023-03-20T11:38:24;76031.16;;;-142.11;100.00
14800;BME280;7491;57.750;11.970;2023-03-20T11:40:51;76033.22;;;-142.11;100.00
14800;BME280;7491;57.750;11.970;2023-03-20T11:43:22;76029.13;;;-142.11;100.00
14800;BME280;7491;57.750;11.970;2023-03-20T11:45:53;76033.22;;;-142.11;100.00
14800;BME280;7491;57.750;11.970;2023-03-20T11:48:23;76039.31;;;-142.11;100.00
14800;BME280;7491;57.750;11.970;2023-03-20T11:50:56;76039.31;;;-142.11;100.00
14800;BME280;7491;57.750;11.970;2023-03-20T11:53:28;76033.22;;;-142.11;100.00
14800;BME280;7491;57.750;11.970;2023-03-20T11:56:02;76020.97;;;-142.11;100.00
14800;BME280;7491;57.750;11.970;2023-03-20T11:58:30;76008.75;;;-142.11;100.00
14800;BME280;7491;57.750;11.970;2023-03-20T12:01:00;75998.56;;;-142.11;100.00
14800;BME280;7491;57.750;11.970;2023-03-20T12:03:40;75982.25;;;-142.11;100.00
14800;BME280;7491;57.750;11.970;2023-03-20T12:06:13;75990.41;;;-142.11;100.00
14800;BME280;7491;57.750;11.970;2023-03-20T12:08:42;75972.06;;;-142.11;100.00
14800;BME280;7491;57.750;11.970;2023-03-20T12:11:25;75965.94;;;-142.11;100.00
14800;BME280;7491;57.750;11.970;2023-03-20T12:13:58;75955.75;;;-142.11;100.00
14800;BME280;7491;57.750;11.970;2023-03-20T12:16:28;75949.63;;;-142.11;100.00
14800;BME280;7491;57.750;11.970;2023-03-20T12:18:59;75943.50;;;-142.11;100.00
14800;BME280;7491;57.750;11.970;2023-03-20T12:21:32;75933.31;;;-142.11;100.00
14800;BME280;7491;57.750;11.970;2023-03-20T12:24:03;75939.44;;;-142.11;100.00
14800;BME280;7491;57.750;11.970;2023-03-20T12:26:35;75941.47;;;-142.11;100.00
14800;BME280;7491;57.750;11.970;2023-03-20T12:29:12;75914.97;;;-142.11;100.00
14800;BME280;7491;57.750;11.970;2023-03-20T12:31:45;75910.91;;;-142.11;100.00
14800;BME280;7491;57.750;11.970;2023-03-20T12:34:19;75902.75;;;-142.11;100.00
14800;BME280;7491;57.750;11.970;2023-03-20T12:36:48;75906.81;;;-142.11;100.00
14800;BME280;7491;57.750;11.970;2023-03-20T12:39:18;75906.81;;;-142.11;100.00
14800;BME280;7491;57.750;11.970;2023-03-20T12:41:57;75894.59;;;-142.11;100.00
14800;BME280;7491;57.750;11.970;2023-03-20T12:44:35;75886.44;;;-142.11;100.00
14800;BME280;7491;57.750;11.970;2023-03-20T12:47:21;75898.66;;;-142.11;100.00
14800;BME280;7491;57.750;11.970;2023-03-20T12:50:03;75902.75;;;-142.11;100.00
14800;BME280;7491;57.750;11.970;2023-03-20T12:52:40;75935.38;;;-142.11;100.00
14800;BME280;7491;57.750;11.970;2023-03-20T12:55:22;75937.41;;;-142.11;100.00
14800;BME280;7491;57.750;11.970;2023-03-20T12:58:02;75935.38;;;-142.11;100.00
14800;BME280;7491;57.750;11.970;2023-03-20T13:00:35;75941.47;;;-142.11;100.00
14800;BME280;7491;57.750;11.970;2023-03-20T13:03:14;75939.44;;;-142.11;100.00
14800;BME280;7491;57.750;11.970;2023-03-20T13:05:51;75927.22;;;-142.11;100.00
14800;BME280;7491;57.750;11.970;2023-03-20T13:08:44;75929.25;;;-142.11;100.00
14800;BME280;7491;57.750;11.970;2023-03-20T13:11:20;75925.16;;;-142.11;100.00
14800;BME280;7491;57.750;11.970;2023-03-20T13:13:53;75943.50;;;-142.11;100.00
14800;BME280;7491;57.750;11.970;2023-03-20T13:16:30;75941.47;;;-142.11;100.00
14800;BME280;7491;57.750;11.970;2023-03-20T13:19:06;75943.50;;;-142.11;100.00
14800;BME280;7491;57.750;11.970;2023-03-20T13:21:39;75951.66;;;-142.11;100.00
14800;BME280;7491;57.750;11.970;2023-03-20T13:24:22;75955.75;;;-142.11;100.00
14800;BME280;7491;57.750;11.970;2023-03-20T13:26:57;75953.72;;;-142.11;100.00
14800;BME280;7491;57.750;11.970;2023-03-20T13:29:31;75941.47;;;-142.11;100.00
14800;BME280;7491;57.750;11.970;2023-03-20T13:32:08;75925.16;;;-142.11;100.00
14800;BME280;7491;57.750;11.970;2023-03-20T13:34:52;75955.75;;;-142.11;100.00
14800;BME280;7491;57.750;11.970;2023-03-20T13:37:25;75959.81;;;-142.11;100.00
14800;BME280;7491;57.750;11.970;2023-03-20T13:40:03;75955.75;;;-142.11;100.00
14800;BME280;7491;57.750;11.970;2023-03-20T13:42:36;75955.75;;;-142.11;100.00
14800;BME280;7491;57.750;11.970;2023-03-20T13:45:08;75957.78;;;-142.11;100.00
14800;BME280;7491;57.750;11.970;2023-03-20T13:47:38;75994.47;;;-142.11;100.00
14800;BME280;7491;57.750;11.970;2023-03-20T13:50:19;75994.47;;;-142.11;100.00
14800;BME280;7491;57.750;11.970;2023-03-20T13:52:54;75996.50;;;-142.11;100.00
14800;BME280;7491;57.750;11.970;2023-03-20T13:55:30;76008.75;;;-142.11;100.00
14800;BME280;7491;57.750;11.970;2023-03-20T13:58:15;76004.66;;;-142.11;100.00